Time;durP1;ratioP1;P1;durP2;ratioP2;P2;SDS_P1;SDS_P2;PMS_P1;PMS_P2;Temp;Humidity;BMP_temperature;BMP_pressure;BME280_temperature;BME280_humidity;BME280_pressure;Samples;Min_cycle;Max_cycle;Signal;HPM_P1;HPM_P2
2022/06/22 00:01:15;;;;;;;;;;;;;;;10.19;84.94;100027.98;84776;1325;22594;-72
2022/06/22 00:03:18;;;;;;;;;;;;;;;10.18;85.06;100025.76;84797;1328;22647;-71
2022/06/22 00:05:24;;;;;;;;;;;;;;;10.17;85.13;100026.68;84794;1326;24262;-71
2022/06/22 00:07:29;;;;;;;;;;;;;;;10.17;85.24;100027.88;84778;1329;25240;-71
2022/06/22 00:09:34;;;;;;;;;;;;;;;10.15;85.23;100028.16;84796;1328;22597;-72
2022/06/22 00:11:37;;;;;;;;;;;;;;;10.15;85.43;100031.65;84774;1326;25477;-71
2022/06/22 00:13:45;;;;;;;;;;;;;;;10.15;85.39;100028.16;84803;1325;25282;-72
2022/06/22 00:15:49;;;;;;;;;;;;;;;10.15;85.41;100030.95;84779;1326;22577;-72
2022/06/22 00:17:53;;;;;;;;;;;;;;;10.15;85.41;100036.19;84796;1326;22805;-71
2022/06/22 00:19:59;;;;;;;;;;;;;;;10.13;85.38;100036.41;84790;1326;22562;-72
2022/06/22 00:22:03;;;;;;;;;;;;;;;10.13;85.55;100039.42;84786;1326;22606;-71
2022/06/22 00:24:30;;;;;;;;;;;;;;;10.11;85.36;100042.63;84799;1327;22665;-72
2022/06/22 00:26:34;;;;;;;;;;;;;;;10.11;85.73;100046.30;84786;1326;22607;-71
2022/06/22 00:28:53;;;;;;;;;;;;;;;10.11;85.81;100047.48;84766;1326;22536;-72
2022/06/22 00:31:00;;;;;;;;;;;;;;;10.11;85.79;100047.17;84780;1326;24454;-72
2022/06/22 00:33:16;;;;;;;;;;;;;;;10.07;85.60;100044.17;84776;1326;22562;-72
2022/06/22 00:35:38;;;;;;;;;;;;;;;10.03;85.43;100044.52;84823;1325;23898;-72
2022/06/22 00:37:41;;;;;;;;;;;;;;;10.00;85.48;100046.88;84761;1326;22708;-72
2022/06/22 00:39:45;;;;;;;;;;;;;;;9.97;85.49;100050.52;84841;1326;22550;-72
2022/06/22 00:41:52;;;;;;;;;;;;;;;9.97;85.75;100059.55;84864;1321;22573;-72
2022/06/22 00:43:55;;;;;;;;;;;;;;;9.96;85.53;100067.47;84896;1323;22597;-71
2022/06/22 00:45:59;;;;;;;;;;;;;;;9.93;85.70;100069.67;84828;1327;22588;-72
2022/06/22 00:48:05;;;;;;;;;;;;;;;9.94;85.87;100068.76;84798;1325;22615;-72
2022/06/22 00:50:13;;;;;;;;;;;;;;;9.92;85.95;100063.61;84790;1326;22583;-71
2022/06/22 00:52:19;;;;;;;;;;;;;;;9.93;85.82;100062.20;84795;1326;22582;-72
2022/06/22 00:54:26;;;;;;;;;;;;;;;9.92;85.59;100063.64;84786;1326;24278;-72
2022/06/22 00:56:40;;;;;;;;;;;;;;;9.89;85.69;100061.98;84803;1324;22751;-72
2022/06/22 00:58:51;;;;;;;;;;;;;;;9.87;85.83;100066.08;84780;1323;22872;-72
2022/06/22 01:00:57;;;;;;;;;;;;;;;9.84;85.84;100061.48;84822;1327;25422;-72
2022/06/22 01:03:06;;;;;;;;;;;;;;;9.83;85.85;100065.02;84814;1327;22590;-72
2022/06/22 01:05:17;;;;;;;;;;;;;;;9.79;85.83;100066.37;84812;1326;22979;-72
2022/06/22 01:07:23;;;;;;;;;;;;;;;9.76;85.76;100069.98;84783;1324;22947;-71
2022/06/22 01:09:28;;;;;;;;;;;;;;;9.74;85.77;100067.61;84810;1325;22573;-71
2022/06/22 01:13:56;;;;;;;;;;;;;;;9.64;85.44;100066.63;84770;1326;22580;-71
2022/06/22 01:16:00;;;;;;;;;;;;;;;9.61;85.68;100067.09;84777;1326;22533;-72
2022/06/22 01:18:06;;;;;;;;;;;;;;;9.59;85.69;100068.05;84780;1327;22649;-72
2022/06/22 01:20:14;;;;;;;;;;;;;;;9.54;85.45;100063.70;84794;1326;23933;-71
2022/06/22 01:22:26;;;;;;;;;;;;;;;9.51;85.39;100060.02;84764;1329;24106;-70
2022/06/22 01:24:31;;;;;;;;;;;;;;;9.48;85.60;100059.79;84822;1327;23024;-72
2022/06/22 01:27:15;;;;;;;;;;;;;;;9.44;85.58;100063.24;84714;1327;22962;-71
2022/06/22 01:29:20;;;;;;;;;;;;;;;9.40;85.78;100062.13;84856;1327;22582;-72
2022/06/22 01:31:23;;;;;;;;;;;;;;;9.38;85.69;100061.73;84692;1330;22757;-72
2022/06/22 01:33:32;;;;;;;;;;;;;;;9.33;85.49;100058.80;84773;1327;23923;-72
2022/06/22 01:35:37;;;;;;;;;;;;;;;9.27;85.66;100059.51;84710;1326;22591;-71
2022/06/22 01:37:42;;;;;;;;;;;;;;;9.24;85.64;100058.42;84775;1327;22609;-72
2022/06/22 01:39:46;;;;;;;;;;;;;;;9.18;85.56;100054.79;84845;1327;24304;-72
2022/06/22 01:41:51;;;;;;;;;;;;;;;9.16;86.14;100059.76;84831;1325;24359;-72
2022/06/22 01:43:56;;;;;;;;;;;;;;;9.17;86.12;100054.85;84826;1327;22629;-71
2022/06/22 01:46:04;;;;;;;;;;;;;;;9.16;86.16;100051.58;84807;1326;22662;-71
2022/06/22 01:48:11;;;;;;;;;;;;;;;9.16;86.57;100050.87;84802;1326;22606;-71
2022/06/22 01:50:18;;;;;;;;;;;;;;;9.17;86.63;100060.41;84812;1327;22598;-70
2022/06/22 01:52:35;;;;;;;;;;;;;;;9.18;86.82;100063.88;84814;1326;22858;-71
2022/06/22 01:54:40;;;;;;;;;;;;;;;9.17;86.69;100067.74;84825;1326;22823;-71
2022/06/22 01:56:45;;;;;;;;;;;;;;;9.16;86.94;100072.29;84827;1326;22614;-71
2022/06/22 01:58:58;;;;;;;;;;;;;;;9.16;87.01;100071.77;84867;1325;22814;-71
2022/06/22 02:01:03;;;;;;;;;;;;;;;9.18;87.40;100066.13;84809;1326;22526;-71
2022/06/22 02:03:12;;;;;;;;;;;;;;;9.19;87.46;100065.74;84759;1323;22586;-71
2022/06/22 02:05:19;;;;;;;;;;;;;;;9.19;87.28;100066.59;84733;1327;26903;-72
2022/06/22 02:09:56;;;;;;;;;;;;;;;9.16;87.44;100059.58;84803;1322;22568;-72
2022/06/22 02:14:19;;;;;;;;;;;;;;;9.16;87.59;100067.05;84697;1326;25285;-72
2022/06/22 02:16:25;;;;;;;;;;;;;;;9.19;87.75;100071.99;84814;1326;24278;-71
2022/06/22 02:18:33;;;;;;;;;;;;;;;9.22;87.92;100073.81;84769;1326;22573;-71
2022/06/22 02:20:38;;;;;;;;;;;;;;;9.22;88.07;100074.14;84716;1326;24367;-71
2022/06/22 02:22:41;;;;;;;;;;;;;;;9.24;88.24;100075.10;84751;1327;22595;-72
2022/06/22 02:24:46;;;;;;;;;;;;;;;9.27;88.22;100075.88;84759;1326;22603;-72
2022/06/22 02:26:56;;;;;;;;;;;;;;;9.29;88.43;100077.16;84766;1326;22665;-71
2022/06/22 02:29:00;;;;;;;;;;;;;;;9.33;88.54;100083.33;84795;1326;25322;-71
2022/06/22 02:31:03;;;;;;;;;;;;;;;9.35;88.34;100082.88;84724;1326;25275;-72
2022/06/22 02:33:08;;;;;;;;;;;;;;;9.38;88.33;100085.73;84783;1329;22593;-73
2022/06/22 02:35:12;;;;;;;;;;;;;;;9.41;88.31;100083.20;84815;1327;25449;-71
2022/06/22 02:37:16;;;;;;;;;;;;;;;9.44;88.58;100084.98;84808;1329;22582;-73
2022/06/22 02:39:20;;;;;;;;;;;;;;;9.47;88.54;100087.15;84750;1326;23911;-71
2022/06/22 02:46:09;;;;;;;;;;;;;;;9.56;88.67;100095.14;84788;1326;23779;-72
2022/06/22 02:48:26;;;;;;;;;;;;;;;9.59;88.70;100097.12;84795;1328;22573;-72
2022/06/22 02:50:35;;;;;;;;;;;;;;;9.63;88.85;100100.82;84768;1326;23974;-72
2022/06/22 02:52:39;;;;;;;;;;;;;;;9.65;88.72;100101.59;84776;1326;22899;-71
2022/06/22 02:54:45;;;;;;;;;;;;;;;9.68;88.82;100099.54;84749;1326;22588;-72
2022/06/22 02:56:51;;;;;;;;;;;;;;;9.73;88.87;100102.00;84769;1325;22598;-72
2022/06/22 02:58:55;;;;;;;;;;;;;;;9.76;88.98;100101.34;84757;1327;24294;-71
2022/06/22 03:00:59;;;;;;;;;;;;;;;9.80;89.05;100095.59;84772;1325;22589;-72
2022/06/22 03:03:07;;;;;;;;;;;;;;;9.86;88.97;100096.61;84769;1325;24293;-71
2022/06/22 03:05:11;;;;;;;;;;;;;;;9.89;89.18;100105.00;84748;1324;24339;-72
2022/06/22 03:07:14;;;;;;;;;;;;;;;9.92;89.14;100107.35;84770;1326;22608;-71
2022/06/22 03:09:18;;;;;;;;;;;;;;;9.96;89.33;100108.05;84741;1326;22799;-71
2022/06/22 03:11:21;;;;;;;;;;;;;;;10.00;89.23;100104.03;84774;1327;23904;-72
2022/06/22 03:13:25;;;;;;;;;;;;;;;10.06;89.43;100107.32;84752;1325;22578;-72
2022/06/22 03:15:31;;;;;;;;;;;;;;;10.12;89.44;100103.42;84756;1325;24253;-72
2022/06/22 03:17:36;;;;;;;;;;;;;;;10.15;89.29;100098.58;84769;1326;25418;-72
2022/06/22 03:19:41;;;;;;;;;;;;;;;10.20;89.17;100090.02;84789;1325;22682;-71
2022/06/22 03:21:45;;;;;;;;;;;;;;;10.26;89.44;100087.67;84736;1325;22625;-71
2022/06/22 03:23:50;;;;;;;;;;;;;;;10.32;89.41;100083.59;84691;1329;22598;-71
2022/06/22 03:26:07;;;;;;;;;;;;;;;10.40;89.71;100075.96;84787;1327;22571;-73
2022/06/22 03:28:12;;;;;;;;;;;;;;;10.49;89.53;100074.73;84778;1327;22569;-72
2022/06/22 03:30:18;;;;;;;;;;;;;;;10.67;89.81;100079.17;84707;1326;25263;-72
2022/06/22 03:32:25;;;;;;;;;;;;;;;11.19;91.29;100085.75;84754;1326;24210;-72
2022/06/22 03:34:29;;;;;;;;;;;;;;;12.14;92.22;100086.23;84771;1326;22592;-72
2022/06/22 03:36:35;;;;;;;;;;;;;;;13.25;93.28;100080.70;84793;1326;23917;-72
2022/06/22 03:38:40;;;;;;;;;;;;;;;14.43;92.28;100073.73;84776;1321;22580;-72
2022/06/22 03:40:45;;;;;;;;;;;;;;;15.53;90.79;100067.79;84786;1327;25416;-72
2022/06/22 03:42:50;;;;;;;;;;;;;;;16.51;87.67;100069.46;84783;1322;22590;-72
2022/06/22 03:44:54;;;;;;;;;;;;;;;17.42;84.68;100075.41;84765;1326;25946;-72
2022/06/22 03:46:58;;;;;;;;;;;;;;;18.29;82.07;100080.02;84764;1327;23803;-72
2022/06/22 03:49:04;;;;;;;;;;;;;;;19.11;78.84;100080.84;84774;1326;25426;-72
2022/06/22 03:51:09;;;;;;;;;;;;;;;19.86;76.03;100084.02;84747;1330;22890;-72
2022/06/22 03:53:14;;;;;;;;;;;;;;;20.53;72.74;100085.20;84776;1326;25281;-72
2022/06/22 03:55:19;;;;;;;;;;;;;;;21.17;70.09;100091.85;84777;1327;22591;-72
2022/06/22 03:57:23;;;;;;;;;;;;;;;21.62;66.77;100090.45;84564;1326;299225;-72
2022/06/22 03:59:26;;;;;;;;;;;;;;;22.02;64.24;100084.86;84778;1327;22731;-72
2022/06/22 04:01:29;;;;;;;;;;;;;;;22.37;62.97;100083.79;84776;1328;22645;-72
2022/06/22 04:03:33;;;;;;;;;;;;;;;22.72;60.83;100083.06;84757;1330;22590;-72
2022/06/22 04:05:39;;;;;;;;;;;;;;;23.10;59.24;100090.54;84776;1326;24270;-72
2022/06/22 04:07:43;;;;;;;;;;;;;;;23.59;57.39;100091.73;84768;1322;24368;-72
2022/06/22 04:09:49;;;;;;;;;;;;;;;24.00;55.60;100087.55;84781;1324;22591;-71
2022/06/22 04:11:55;;;;;;;;;;;;;;;24.34;54.05;100087.91;84712;1326;25424;-71
2022/06/22 04:14:01;;;;;;;;;;;;;;;24.82;52.33;100086.57;84696;1326;23000;-71
2022/06/22 04:16:08;;;;;;;;;;;;;;;25.13;51.26;100093.65;84720;1326;25306;-73
2022/06/22 04:18:13;;;;;;;;;;;;;;;25.55;50.45;100095.50;84777;1326;22692;-73
2022/06/22 04:20:18;;;;;;;;;;;;;;;26.05;48.56;100101.40;84757;1326;22729;-73
2022/06/22 04:22:23;;;;;;;;;;;;;;;26.32;47.47;100095.61;84767;1327;22823;-71
2022/06/22 04:24:28;;;;;;;;;;;;;;;26.63;46.81;100094.84;84774;1326;22574;-72
2022/06/22 04:26:33;;;;;;;;;;;;;;;26.84;45.00;100087.70;84777;1326;22705;-72
2022/06/22 04:28:38;;;;;;;;;;;;;;;27.11;44.57;100087.83;84765;1325;22582;-72
2022/06/22 04:30:43;;;;;;;;;;;;;;;27.37;43.69;100094.43;84794;1325;23982;-72
2022/06/22 04:32:51;;;;;;;;;;;;;;;27.58;43.04;100098.11;84773;1325;23038;-72
2022/06/22 04:34:57;;;;;;;;;;;;;;;27.89;42.52;100095.17;84795;1327;22591;-72
2022/06/22 04:37:00;;;;;;;;;;;;;;;27.99;41.65;100091.80;84751;1321;24212;-72
2022/06/22 04:39:08;;;;;;;;;;;;;;;28.06;41.33;100084.59;84752;1324;22739;-72
2022/06/22 04:41:19;;;;;;;;;;;;;;;28.00;40.75;100079.90;84773;1327;22569;-72
2022/06/22 04:43:22;;;;;;;;;;;;;;;27.61;41.12;100073.11;84742;1330;22719;-72
2022/06/22 04:45:28;;;;;;;;;;;;;;;27.07;41.23;100075.70;84749;1327;22603;-72
2022/06/22 04:47:33;;;;;;;;;;;;;;;26.89;41.37;100079.73;84761;1326;22593;-72
2022/06/22 04:49:37;;;;;;;;;;;;;;;26.92;41.94;100084.09;84737;1322;22641;-72
2022/06/22 04:51:47;;;;;;;;;;;;;;;27.08;41.61;100086.02;84767;1326;25238;-72
2022/06/22 04:53:52;;;;;;;;;;;;;;;27.42;42.05;100090.26;84765;1326;22936;-73
2022/06/22 04:55:55;;;;;;;;;;;;;;;27.84;41.42;100088.02;84761;1327;22635;-73
2022/06/22 04:58:02;;;;;;;;;;;;;;;28.25;40.32;100083.92;84760;1325;25319;-73
2022/06/22 05:00:12;;;;;;;;;;;;;;;28.65;39.35;100088.81;84764;1326;22716;-73
2022/06/22 05:02:15;;;;;;;;;;;;;;;28.91;39.11;100085.46;84743;1327;22859;-73
2022/06/22 05:04:21;;;;;;;;;;;;;;;29.21;38.68;100085.63;84783;1326;22556;-73
2022/06/22 05:06:27;;;;;;;;;;;;;;;29.58;37.84;100087.77;84770;1327;22665;-73
2022/06/22 05:08:34;;;;;;;;;;;;;;;29.96;37.53;100092.65;84756;1327;22847;-73
2022/06/22 05:10:43;;;;;;;;;;;;;;;30.26;36.42;100096.52;84761;1328;22571;-73
2022/06/22 05:12:57;;;;;;;;;;;;;;;30.54;35.72;100098.07;84756;1326;22574;-73
2022/06/22 05:15:01;;;;;;;;;;;;;;;30.76;35.13;100098.02;84765;1326;22761;-73
2022/06/22 05:17:06;;;;;;;;;;;;;;;30.97;34.80;100099.64;84739;1327;22569;-73
2022/06/22 05:19:11;;;;;;;;;;;;;;;31.12;33.63;100099.23;84791;1325;22596;-73
2022/06/22 05:21:18;;;;;;;;;;;;;;;31.24;34.20;100103.59;84755;1324;22587;-73
2022/06/22 05:23:23;;;;;;;;;;;;;;;31.30;33.74;100099.17;84755;1326;22516;-73
2022/06/22 05:25:26;;;;;;;;;;;;;;;31.51;33.71;100099.92;84759;1326;22600;-73
2022/06/22 05:27:36;;;;;;;;;;;;;;;31.71;33.74;100097.43;84771;1328;22575;-73
2022/06/22 05:29:41;;;;;;;;;;;;;;;31.91;32.13;100096.45;84751;1325;22813;-73
2022/06/22 05:31:46;;;;;;;;;;;;;;;31.99;32.51;100099.51;84771;1325;22804;-73
2022/06/22 05:33:50;;;;;;;;;;;;;;;32.07;32.58;100096.33;84743;1326;22603;-71
2022/06/22 05:35:55;;;;;;;;;;;;;;;32.14;32.22;100091.59;84764;1326;25428;-71
2022/06/22 05:37:59;;;;;;;;;;;;;;;32.34;32.05;100093.38;84747;1327;22532;-73
2022/06/22 05:40:04;;;;;;;;;;;;;;;32.59;31.47;100089.98;84794;1326;23930;-73
2022/06/22 05:42:08;;;;;;;;;;;;;;;32.52;30.43;100089.45;84794;1326;23979;-74
2022/06/22 05:44:13;;;;;;;;;;;;;;;32.47;30.84;100091.15;84764;1325;22520;-73
2022/06/22 05:46:16;;;;;;;;;;;;;;;32.54;30.63;100097.20;84782;1327;22584;-73
2022/06/22 05:48:23;;;;;;;;;;;;;;;32.50;30.91;100099.86;84771;1326;22571;-74
2022/06/22 05:50:35;;;;;;;;;;;;;;;32.42;29.81;100108.27;84767;1326;22546;-74
2022/06/22 05:52:41;;;;;;;;;;;;;;;32.29;30.33;100110.10;84757;1326;22877;-73
2022/06/22 05:54:45;;;;;;;;;;;;;;;32.40;30.58;100109.94;84762;1324;22553;-73
2022/06/22 05:56:51;;;;;;;;;;;;;;;32.59;30.34;100104.08;84775;1326;22585;-73
2022/06/22 05:58:57;;;;;;;;;;;;;;;32.65;30.54;100107.41;84824;1328;23744;-73
2022/06/22 06:01:00;;;;;;;;;;;;;;;32.80;30.78;100109.15;84789;1322;22571;-74
2022/06/22 06:03:06;;;;;;;;;;;;;;;32.88;30.78;100108.61;84784;1326;22631;-74
2022/06/22 06:05:12;;;;;;;;;;;;;;;33.00;30.77;100107.13;84760;1326;22568;-74
2022/06/22 06:07:19;;;;;;;;;;;;;;;33.26;29.88;100107.40;84757;1326;25240;-74
2022/06/22 06:09:23;;;;;;;;;;;;;;;33.45;30.10;100105.61;84771;1330;24351;-74
2022/06/22 06:11:28;;;;;;;;;;;;;;;33.65;29.81;100112.92;84790;1326;25284;-74
2022/06/22 06:13:33;;;;;;;;;;;;;;;33.72;30.33;100109.10;84772;1326;25296;-74
2022/06/22 06:15:38;;;;;;;;;;;;;;;33.90;29.77;100111.27;84751;1327;25422;-74
2022/06/22 06:17:43;;;;;;;;;;;;;;;34.11;29.28;100105.84;84765;1327;22695;-74
2022/06/22 06:19:50;;;;;;;;;;;;;;;34.20;28.45;100108.48;84750;1326;22942;-74
2022/06/22 06:21:55;;;;;;;;;;;;;;;34.27;28.64;100112.65;84777;1326;22518;-75
2022/06/22 06:24:00;;;;;;;;;;;;;;;34.48;28.21;100111.39;84793;1326;22676;-75
2022/06/22 06:28:29;;;;;;;;;;;;;;;34.71;28.10;100103.98;84764;1325;22544;-74
2022/06/22 06:30:34;;;;;;;;;;;;;;;34.88;28.01;100100.73;84791;1326;22864;-74
2022/06/22 06:32:39;;;;;;;;;;;;;;;34.97;27.63;100103.85;84772;1325;25384;-73
2022/06/22 06:34:44;;;;;;;;;;;;;;;35.19;27.97;100106.22;84768;1326;22557;-73
2022/06/22 06:36:52;;;;;;;;;;;;;;;35.45;27.94;100105.94;84787;1326;22582;-73
2022/06/22 06:38:57;;;;;;;;;;;;;;;35.63;26.91;100109.00;84795;1330;22671;-71
2022/06/22 06:41:03;;;;;;;;;;;;;;;35.66;26.94;100103.35;84769;1330;22578;-72
2022/06/22 06:43:21;;;;;;;;;;;;;;;35.70;26.67;100098.73;84764;1325;22833;-72
2022/06/22 06:45:24;;;;;;;;;;;;;;;35.79;27.13;100100.13;84797;1328;23966;-72
2022/06/22 06:47:31;;;;;;;;;;;;;;;35.93;26.47;100099.64;84796;1326;22588;-72
2022/06/22 06:49:36;;;;;;;;;;;;;;;35.87;26.13;100098.25;84784;1327;25403;-72
2022/06/22 06:51:40;;;;;;;;;;;;;;;35.81;26.64;100099.04;84802;1326;22583;-72
2022/06/22 06:53:46;;;;;;;;;;;;;;;35.89;26.25;100097.85;84792;1327;22550;-72
2022/06/22 06:55:51;;;;;;;;;;;;;;;36.03;25.67;100094.38;84822;1327;23970;-72
2022/06/22 06:58:01;;;;;;;;;;;;;;;36.01;25.26;100089.70;84788;1325;22604;-73
2022/06/22 07:00:09;;;;;;;;;;;;;;;36.15;26.38;100085.94;84791;1326;25451;-73
2022/06/22 07:02:14;;;;;;;;;;;;;;;36.30;24.79;100091.70;84824;1326;24245;-73
2022/06/22 07:04:19;;;;;;;;;;;;;;;36.16;24.60;100093.92;84882;1326;22597;-73
2022/06/22 07:06:22;;;;;;;;;;;;;;;36.04;24.72;100098.72;84809;1326;24457;-71
2022/06/22 07:08:28;;;;;;;;;;;;;;;36.03;24.09;100099.73;84784;1325;22824;-71
2022/06/22 07:10:35;;;;;;;;;;;;;;;36.15;25.33;100098.10;84780;1330;23925;-72
2022/06/22 07:12:39;;;;;;;;;;;;;;;36.04;23.63;100092.46;84833;1327;22593;-72
2022/06/22 07:14:42;;;;;;;;;;;;;;;35.75;24.56;100093.86;84817;1327;22747;-72
2022/06/22 07:16:46;;;;;;;;;;;;;;;35.78;25.22;100099.17;84794;1326;22570;-72
2022/06/22 07:18:52;;;;;;;;;;;;;;;35.92;25.41;100099.95;84744;1326;25340;-72
2022/06/22 07:20:57;;;;;;;;;;;;;;;35.43;24.20;100101.10;84793;1326;22578;-72
2022/06/22 07:23:04;;;;;;;;;;;;;;;34.79;24.95;100100.58;84820;1324;24229;-72
2022/06/22 07:25:11;;;;;;;;;;;;;;;34.71;25.82;100098.92;84801;1326;24355;-72
2022/06/22 07:27:19;;;;;;;;;;;;;;;34.79;25.58;100089.98;84809;1326;22650;-71
2022/06/22 07:29:27;;;;;;;;;;;;;;;34.83;26.17;100087.81;84789;1326;22766;-70
2022/06/22 07:31:34;;;;;;;;;;;;;;;34.88;26.31;100087.77;84803;1326;25249;-70
2022/06/22 07:33:40;;;;;;;;;;;;;;;35.05;26.55;100090.39;84809;1325;22587;-71
2022/06/22 07:35:47;;;;;;;;;;;;;;;35.12;25.60;100093.16;84804;1327;25337;-71
2022/06/22 07:37:55;;;;;;;;;;;;;;;35.31;25.66;100097.01;84792;1326;22899;-71
2022/06/22 07:39:59;;;;;;;;;;;;;;;35.32;25.48;100101.44;84802;1326;22519;-71
2022/06/22 07:42:03;;;;;;;;;;;;;;;34.97;25.37;100101.11;84809;1326;23991;-71
2022/06/22 07:44:10;;;;;;;;;;;;;;;34.82;26.47;100100.13;84792;1326;22607;-71
2022/06/22 07:46:17;;;;;;;;;;;;;;;35.06;25.99;100096.95;84773;1327;22900;-71
2022/06/22 07:48:21;;;;;;;;;;;;;;;35.07;25.17;100097.73;84821;1326;22638;-71
2022/06/22 07:50:28;;;;;;;;;;;;;;;35.13;25.66;100103.40;84784;1326;24219;-71
2022/06/22 07:52:34;;;;;;;;;;;;;;;35.35;25.73;100103.15;84780;1326;25245;-71
2022/06/22 07:54:40;;;;;;;;;;;;;;;35.55;25.05;100105.63;84801;1325;22680;-71
2022/06/22 07:56:52;;;;;;;;;;;;;;;35.58;24.39;100110.98;84777;1326;22662;-71
2022/06/22 07:58:57;;;;;;;;;;;;;;;35.63;24.79;100106.08;84780;1326;22768;-71
2022/06/22 08:01:03;;;;;;;;;;;;;;;35.95;24.57;100096.95;84801;1326;22584;-71
2022/06/22 08:03:11;;;;;;;;;;;;;;;36.40;24.61;100097.92;84797;1326;22605;-72
2022/06/22 08:05:17;;;;;;;;;;;;;;;36.95;23.82;100099.41;84738;1326;25258;-72
2022/06/22 08:07:21;;;;;;;;;;;;;;;37.18;23.42;100095.20;84720;1326;22635;-72
2022/06/22 08:09:27;;;;;;;;;;;;;;;37.32;23.37;100093.66;84835;1327;22579;-72
2022/06/22 08:11:32;;;;;;;;;;;;;;;36.90;22.72;100096.30;84785;1326;22601;-72
2022/06/22 08:13:38;;;;;;;;;;;;;;;36.63;23.26;100103.14;84791;1329;22659;-72
2022/06/22 08:15:45;;;;;;;;;;;;;;;36.74;23.39;100098.55;84800;1326;22596;-72
2022/06/22 08:17:50;;;;;;;;;;;;;;;36.63;22.83;100107.21;84794;1327;22763;-73
2022/06/22 08:19:53;;;;;;;;;;;;;;;36.37;23.26;100109.51;84818;1326;22504;-72
2022/06/22 08:21:59;;;;;;;;;;;;;;;36.12;23.09;100106.06;84778;1325;22569;-72
2022/06/22 08:24:06;;;;;;;;;;;;;;;36.11;23.61;100105.34;84812;1327;22558;-72
2022/06/22 08:26:13;;;;;;;;;;;;;;;36.28;23.36;100100.88;84767;1328;25435;-72
2022/06/22 08:28:19;;;;;;;;;;;;;;;36.27;24.02;100098.41;84800;1326;24261;-72
2022/06/22 08:30:22;;;;;;;;;;;;;;;36.77;24.59;100099.21;84788;1326;22559;-72
2022/06/22 08:32:27;;;;;;;;;;;;;;;36.84;23.31;100104.87;84780;1326;22574;-72
2022/06/22 08:34:33;;;;;;;;;;;;;;;36.90;22.77;100104.91;84800;1325;25423;-72
2022/06/22 08:36:38;;;;;;;;;;;;;;;36.83;22.13;100104.63;84803;1327;22675;-72
2022/06/22 08:38:43;;;;;;;;;;;;;;;36.57;22.62;100100.70;84808;1326;22627;-72
2022/06/22 08:40:49;;;;;;;;;;;;;;;36.38;22.58;100096.45;84823;1326;22571;-72
2022/06/22 08:42:54;;;;;;;;;;;;;;;35.62;23.81;100101.23;84777;1325;25412;-72
2022/06/22 08:45:13;;;;;;;;;;;;;;;34.95;24.13;100096.41;84808;1327;24285;-72
2022/06/22 08:47:28;;;;;;;;;;;;;;;34.09;25.62;100102.96;84766;1326;25612;-72
2022/06/22 08:49:55;;;;;;;;;;;;;;;34.14;25.92;100101.13;84784;1321;22604;-72
2022/06/22 08:52:20;;;;;;;;;;;;;;;34.63;26.26;100094.14;84638;1326;22562;-72
2022/06/22 08:54:33;;;;;;;;;;;;;;;35.38;26.08;100093.63;84793;1325;22831;-72
2022/06/22 08:56:40;;;;;;;;;;;;;;;35.26;25.51;100101.26;84784;1324;22590;-72
2022/06/22 08:58:55;;;;;;;;;;;;;;;34.62;24.89;100109.65;84786;1326;22588;-72
2022/06/22 09:01:01;;;;;;;;;;;;;;;33.97;25.01;100108.53;84791;1326;22856;-72
2022/06/22 09:03:44;;;;;;;;;;;;;;;33.72;26.58;100108.69;84805;1326;25417;-72
2022/06/22 09:06:02;;;;;;;;;;;;;;;34.00;26.05;100105.02;84773;1326;23336;-71
2022/06/22 09:08:19;;;;;;;;;;;;;;;33.81;26.37;100111.60;84784;1325;23885;-71
2022/06/22 09:10:45;;;;;;;;;;;;;;;33.26;26.49;100108.27;84783;1326;22602;-71
2022/06/22 09:13:15;;;;;;;;;;;;;;;32.61;27.21;100112.29;84791;1327;23880;-71
2022/06/22 09:15:33;;;;;;;;;;;;;;;32.24;28.89;100111.80;84771;1325;23839;-72
2022/06/22 09:17:52;;;;;;;;;;;;;;;32.37;28.93;100106.38;84805;1328;22582;-72
2022/06/22 09:20:15;;;;;;;;;;;;;;;32.54;29.16;100110.11;84778;1328;22609;-72
2022/06/22 09:22:19;;;;;;;;;;;;;;;32.64;27.70;100108.79;84792;1325;25330;-71
2022/06/22 09:24:33;;;;;;;;;;;;;;;32.30;28.25;100109.24;84849;1327;22637;-72
2022/06/22 09:26:39;;;;;;;;;;;;;;;31.91;29.18;100116.96;84799;1322;22577;-72
2022/06/22 09:28:46;;;;;;;;;;;;;;;31.47;28.08;100120.58;84790;1326;22582;-72
2022/06/22 09:30:59;;;;;;;;;;;;;;;30.72;28.47;100122.31;84812;1326;22578;-72
2022/06/22 09:33:34;;;;;;;;;;;;;;;30.01;29.61;100118.20;84785;1326;22717;-72
2022/06/22 09:35:51;;;;;;;;;;;;;;;29.75;30.88;100123.38;84609;1327;22535;-72
2022/06/22 09:38:09;;;;;;;;;;;;;;;29.71;31.35;100123.41;84818;1326;22575;-72
2022/06/22 09:40:32;;;;;;;;;;;;;;;29.53;31.70;100119.17;84794;1326;22587;-72
2022/06/22 09:43:06;;;;;;;;;;;;;;;29.02;31.63;100117.22;84781;1326;22744;-72
2022/06/22 09:45:30;;;;;;;;;;;;;;;28.48;32.73;100116.40;84625;1328;22622;-72
2022/06/22 09:47:54;;;;;;;;;;;;;;;28.49;33.83;100107.23;84782;1327;24392;-72
2022/06/22 09:50:33;;;;;;;;;;;;;;;28.88;33.81;100103.91;84731;1327;22942;-71
2022/06/22 09:52:47;;;;;;;;;;;;;;;28.96;33.82;100108.10;84796;1326;22704;-71
2022/06/22 09:58:00;;;;;;;;;;;;;;;28.27;33.76;100120.85;84787;1326;22584;-72
2022/06/22 10:00:07;;;;;;;;;;;;;;;28.10;34.94;100122.64;84718;1326;22867;-71
2022/06/22 10:02:19;;;;;;;;;;;;;;;28.25;34.26;100118.17;84722;1326;25479;-71
2022/06/22 10:05:04;;;;;;;;;;;;;;;28.60;35.06;100117.92;84782;1326;22769;-71
2022/06/22 10:07:14;;;;;;;;;;;;;;;29.02;33.52;100116.52;84789;1326;25404;-72
2022/06/22 10:09:31;;;;;;;;;;;;;;;29.09;33.42;100125.26;84776;1326;25504;-72
2022/06/22 10:11:46;;;;;;;;;;;;;;;29.18;33.82;100123.16;84798;1326;22666;-72
2022/06/22 10:14:03;;;;;;;;;;;;;;;29.46;33.61;100124.80;84822;1325;24211;-72
2022/06/22 10:16:13;;;;;;;;;;;;;;;29.38;32.25;100119.54;84754;1324;22714;-72
2022/06/22 10:18:28;;;;;;;;;;;;;;;29.09;33.08;100126.09;84783;1325;22988;-72
2022/06/22 10:20:38;;;;;;;;;;;;;;;29.13;33.23;100124.20;84788;1326;22671;-71
2022/06/22 10:22:51;;;;;;;;;;;;;;;29.25;33.19;100121.40;84797;1321;23033;-71
2022/06/22 10:25:17;;;;;;;;;;;;;;;29.34;32.73;100120.97;84774;1325;22607;-71
2022/06/22 10:27:30;;;;;;;;;;;;;;;29.30;32.15;100118.27;84764;1326;25423;-72
2022/06/22 10:29:44;;;;;;;;;;;;;;;29.33;32.36;100122.13;84719;1326;26084;-72
2022/06/22 10:31:56;;;;;;;;;;;;;;;29.27;31.87;100124.27;84857;1327;22670;-72
2022/06/22 10:34:12;;;;;;;;;;;;;;;29.23;31.65;100123.51;84796;1326;22577;-72
2022/06/22 10:36:40;;;;;;;;;;;;;;;29.14;32.21;100124.41;84776;1326;22742;-71
2022/06/22 10:38:53;;;;;;;;;;;;;;;28.82;31.89;100129.77;84783;1326;22606;-72
2022/06/22 10:45:56;;;;;;;;;;;;;;;28.36;33.27;100125.95;84784;1326;22587;-72
2022/06/22 10:48:29;;;;;;;;;;;;;;;28.33;33.68;100124.69;84790;1326;22570;-72
2022/06/22 10:50:37;;;;;;;;;;;;;;;28.38;33.56;100123.23;84768;1326;22743;-72
2022/06/22 10:52:55;;;;;;;;;;;;;;;28.33;32.20;100122.49;84801;1327;23974;-72
2022/06/22 10:55:07;;;;;;;;;;;;;;;28.19;32.47;100120.16;84776;1326;22589;-72
2022/06/22 10:57:20;;;;;;;;;;;;;;;28.22;33.73;100120.09;84783;1326;22577;-72
2022/06/22 10:59:40;;;;;;;;;;;;;;;28.23;33.09;100116.60;84811;1325;23941;-72
2022/06/22 11:01:55;;;;;;;;;;;;;;;28.31;33.31;100119.71;84788;1330;22789;-74
2022/06/22 11:04:43;;;;;;;;;;;;;;;28.40;32.71;100119.53;84793;1325;22599;-72
2022/06/22 11:07:06;;;;;;;;;;;;;;;28.36;33.14;100114.46;84786;1326;22597;-72
2022/06/22 11:09:31;;;;;;;;;;;;;;;28.38;33.75;100109.60;84781;1326;22737;-72
2022/06/22 11:11:45;;;;;;;;;;;;;;;28.28;32.88;100104.90;84732;1326;25281;-72
2022/06/22 11:13:57;;;;;;;;;;;;;;;28.10;32.95;100105.45;84804;1326;22651;-72
2022/06/22 11:16:06;;;;;;;;;;;;;;;28.11;33.73;100104.58;84785;1326;25412;-72
2022/06/22 11:18:17;;;;;;;;;;;;;;;28.25;34.02;100097.00;84779;1326;22588;-72
2022/06/22 11:20:27;;;;;;;;;;;;;;;28.35;33.86;100096.77;84793;1326;23842;-72
2022/06/22 11:22:32;;;;;;;;;;;;;;;28.40;33.95;100100.66;84791;1327;25283;-72
2022/06/22 11:25:02;;;;;;;;;;;;;;;28.41;32.85;100100.19;84781;1326;22581;-72